createdAt,value
2023-02-02T00:01:30.417Z,4.90
2023-02-02T00:03:58.719Z,4.60
2023-02-02T00:06:28.610Z,4.40
2023-02-02T00:08:57.909Z,4.20
2023-02-02T00:11:26.608Z,3.80
2023-02-02T00:13:55.858Z,3.60
2023-02-02T00:16:41.791Z,3.40
2023-02-02T00:19:11.693Z,3.30
2023-02-02T00:21:39.791Z,3.20
2023-02-02T00:24:08.883Z,3.20
2023-02-02T00:26:37.496Z,3.10
2023-02-02T00:29:07.851Z,3.20
2023-02-02T00:31:36.252Z,3.10
2023-02-02T00:34:04.157Z,3.10
2023-02-02T00:36:31.967Z,3.00
2023-02-02T00:38:59.762Z,3.00
2023-02-02T00:41:27.549Z,3.00
2023-02-02T00:44:09.270Z,2.90
2023-02-02T00:46:40.313Z,2.70
2023-02-02T00:49:08.248Z,2.60
2023-02-02T00:51:36.168Z,2.50
2023-02-02T00:54:04.533Z,2.50
2023-02-02T00:56:32.497Z,2.50
2023-02-02T00:59:00.316Z,2.50
2023-02-02T01:01:28.598Z,2.50
2023-02-02T01:03:58.794Z,2.50
2023-02-02T01:06:26.981Z,2.50
2023-02-02T01:08:55.070Z,2.50
2023-02-02T01:11:22.957Z,2.50
2023-02-02T01:13:50.797Z,2.60
2023-02-02T01:16:18.652Z,2.60
2023-02-02T01:18:46.477Z,2.60
2023-02-02T01:21:15.600Z,2.60
2023-02-02T01:23:43.392Z,2.60
2023-02-02T01:26:12.570Z,2.50
2023-02-02T01:28:40.985Z,2.50
2023-02-02T01:31:10.777Z,2.50
2023-02-02T01:33:38.678Z,2.50
2023-02-02T01:36:08.369Z,2.50
2023-02-02T01:38:37.636Z,2.50
2023-02-02T01:41:07.017Z,2.50
2023-02-02T01:43:54.881Z,2.50
2023-02-02T01:46:24.355Z,2.50
2023-02-02T01:48:59.713Z,2.50
2023-02-02T01:51:33.503Z,2.50
2023-02-02T01:54:03.810Z,2.50
2023-02-02T01:56:36.106Z,2.50
2023-02-02T01:59:05.942Z,2.50
2023-02-02T02:01:33.812Z,2.50
2023-02-02T02:04:01.727Z,2.50
2023-02-02T02:06:29.862Z,2.40
2023-02-02T02:09:00.126Z,2.40
2023-02-02T02:11:29.360Z,2.40
2023-02-02T02:14:17.290Z,2.40
2023-02-02T02:16:55.680Z,2.40
2023-02-02T02:20:41.506Z,2.40
2023-02-02T02:24:07.277Z,2.40
2023-02-02T02:26:58.409Z,2.40
2023-02-02T02:29:55.306Z,2.40
2023-02-02T02:32:36.827Z,2.40
2023-02-02T02:35:10.603Z,2.40
2023-02-02T02:37:47.066Z,2.40
2023-02-02T02:40:23.303Z,2.40
2023-02-02T02:42:56.246Z,2.40
2023-02-02T02:45:26.138Z,2.40
2023-02-02T02:47:55.920Z,2.40
2023-02-02T02:50:23.960Z,2.40
2023-02-02T02:52:59.905Z,2.40
2023-02-02T02:55:34.546Z,2.40
2023-02-02T02:58:10.658Z,2.40
2023-02-02T03:00:47.354Z,2.40
2023-02-02T03:03:25.561Z,2.40
2023-02-02T03:05:57.054Z,2.40
2023-02-02T03:08:31.511Z,2.40
2023-02-02T03:11:02.190Z,2.40
2023-02-02T03:13:31.516Z,2.40
2023-02-02T03:15:59.826Z,2.40
2023-02-02T03:18:31.634Z,2.40
2023-02-02T03:20:59.786Z,2.40
2023-02-02T03:23:28.021Z,2.40
2023-02-02T03:25:56.369Z,2.30
2023-02-02T03:28:25.427Z,2.30
2023-02-02T03:30:54.689Z,2.30
2023-02-02T03:33:23.206Z,2.40
2023-02-02T03:35:53.416Z,2.40
2023-02-02T03:38:21.232Z,2.40
2023-02-02T03:40:49.020Z,2.30
2023-02-02T03:43:21.420Z,2.30
2023-02-02T03:45:49.366Z,2.30
2023-02-02T03:48:17.169Z,2.30
2023-02-02T03:50:44.933Z,2.30
2023-02-02T03:53:14.076Z,2.30
2023-02-02T03:55:41.883Z,2.30
2023-02-02T03:58:09.749Z,2.30
2023-02-02T04:00:37.879Z,2.30
2023-02-02T04:03:05.731Z,2.20
2023-02-02T04:05:33.639Z,2.30
2023-02-02T04:08:01.419Z,2.20
2023-02-02T04:10:30.621Z,2.20
2023-02-02T04:12:58.689Z,2.30
2023-02-02T04:15:26.921Z,2.30
2023-02-02T04:17:54.958Z,2.30
2023-02-02T04:20:22.767Z,2.30
2023-02-02T04:22:50.683Z,2.30
2023-02-02T04:25:18.490Z,2.30
2023-02-02T04:27:47.659Z,2.30
2023-02-02T04:30:15.561Z,2.30
2023-02-02T04:32:43.431Z,2.30
2023-02-02T04:35:11.233Z,2.30
2023-02-02T04:37:38.979Z,2.30
2023-02-02T04:40:07.880Z,2.30
2023-02-02T04:42:35.676Z,2.30
2023-02-02T04:45:05.355Z,2.30
2023-02-02T04:47:33.157Z,2.30
2023-02-02T04:50:00.974Z,2.30
2023-02-02T04:52:30.003Z,2.30
2023-02-02T04:54:57.781Z,2.20
2023-02-02T04:57:25.637Z,2.20
2023-02-02T04:59:53.623Z,2.20
2023-02-02T05:02:22.743Z,2.20
2023-02-02T05:04:50.559Z,2.20
2023-02-02T05:07:18.389Z,2.20
2023-02-02T05:09:46.213Z,2.20
2023-02-02T05:12:13.984Z,2.20
2023-02-02T05:14:41.820Z,2.20
2023-02-02T05:17:09.594Z,2.20
2023-02-02T05:19:38.813Z,2.20
2023-02-02T05:22:06.614Z,2.20
2023-02-02T05:24:34.481Z,2.20
2023-02-02T05:27:02.282Z,2.30
2023-02-02T05:29:30.572Z,2.30
2023-02-02T05:31:58.921Z,2.30
2023-02-02T05:34:27.383Z,2.30
2023-02-02T05:36:56.700Z,2.30
2023-02-02T05:39:24.495Z,2.30
2023-02-02T05:41:52.275Z,2.20
2023-02-02T05:44:20.040Z,2.20
2023-02-02T05:46:47.869Z,2.30
2023-02-02T05:49:15.871Z,2.30
2023-02-02T05:51:46.045Z,2.30
2023-02-02T05:54:19.216Z,2.30
2023-02-02T05:56:47.784Z,2.30
2023-02-02T05:59:15.626Z,2.30
2023-02-02T06:01:43.441Z,2.30
2023-02-02T06:04:11.345Z,2.40
2023-02-02T06:06:39.793Z,2.30
2023-02-02T06:09:08.209Z,2.40
2023-02-02T06:11:39.304Z,2.40
2023-02-02T06:14:07.571Z,2.30
2023-02-02T06:16:35.573Z,2.30
2023-02-02T06:19:03.387Z,2.50
2023-02-02T06:21:31.838Z,2.30
2023-02-02T06:24:00.073Z,2.30
2023-02-02T06:26:27.968Z,2.30
2023-02-02T06:28:57.146Z,2.40
2023-02-02T06:31:25.527Z,2.40
2023-02-02T06:33:58.217Z,2.40
2023-02-02T06:36:27.346Z,2.40
2023-02-02T06:38:56.731Z,2.40
2023-02-02T06:41:25.315Z,2.50
2023-02-02T06:43:53.331Z,2.50
2023-02-02T06:46:22.501Z,2.50
2023-02-02T06:48:50.366Z,2.50
2023-02-02T06:51:18.173Z,2.50
2023-02-02T06:53:49.220Z,2.50
2023-02-02T06:56:17.739Z,2.50
2023-02-02T06:58:45.560Z,2.50
2023-02-02T07:01:14.642Z,2.50
2023-02-02T07:03:44.059Z,2.50
2023-02-02T07:06:13.815Z,2.50
2023-02-02T07:08:41.595Z,2.50
2023-02-02T07:11:15.790Z,2.50
2023-02-02T07:13:44.904Z,2.50
2023-02-02T07:16:13.809Z,2.50
2023-02-02T07:18:43.793Z,2.50
2023-02-02T07:21:18.272Z,2.50
2023-02-02T07:23:46.399Z,2.50
2023-02-02T07:26:15.329Z,2.50
2023-02-02T07:28:43.865Z,2.50
2023-02-02T07:31:16.910Z,2.50
2023-02-02T07:33:47.670Z,2.50
2023-02-02T07:36:17.194Z,2.50
2023-02-02T07:38:45.241Z,2.50
2023-02-02T07:41:13.145Z,2.50
2023-02-02T07:43:41.021Z,2.40
2023-02-02T07:46:12.672Z,2.50
2023-02-02T07:48:40.659Z,2.50
2023-02-02T07:51:12.209Z,2.40
2023-02-02T07:53:40.657Z,2.40
2023-02-02T07:56:10.061Z,2.50
2023-02-02T07:58:38.151Z,2.50
2023-02-02T08:01:07.471Z,2.50
2023-02-02T08:03:36.193Z,2.50
2023-02-02T08:06:13.186Z,2.50
2023-02-02T08:08:41.133Z,2.60
2023-02-02T08:11:10.769Z,2.60
2023-02-02T08:13:38.888Z,2.60
2023-02-02T08:16:07.455Z,2.50
2023-02-02T08:18:35.406Z,2.60
2023-02-02T08:21:04.878Z,2.50
2023-02-02T08:23:34.317Z,2.50
2023-02-02T08:26:08.015Z,2.60
2023-02-02T08:28:36.305Z,2.60
2023-02-02T08:31:08.968Z,2.60
2023-02-02T08:33:38.541Z,2.70
2023-02-02T08:36:09.112Z,2.70
2023-02-02T08:38:38.254Z,2.70
2023-02-02T08:41:07.140Z,2.70
2023-02-02T08:43:35.258Z,2.70
2023-02-02T08:46:05.519Z,2.70
2023-02-02T08:48:34.815Z,2.80
2023-02-02T08:51:03.080Z,2.70
2023-02-02T08:53:31.295Z,2.70
2023-02-02T08:56:01.939Z,2.80
2023-02-02T08:58:29.972Z,2.80
2023-02-02T09:01:05.620Z,2.80
2023-02-02T09:03:33.505Z,2.80
2023-02-02T09:06:05.097Z,2.90
2023-02-02T09:08:33.405Z,2.80
2023-02-02T09:11:07.475Z,2.80
2023-02-02T09:13:35.410Z,2.80
2023-02-02T09:16:03.794Z,2.80
2023-02-02T09:18:31.874Z,2.90
2023-02-02T09:21:01.618Z,2.90
2023-02-02T09:23:31.292Z,2.90
2023-02-02T09:25:59.243Z,2.90
2023-02-02T09:28:28.421Z,2.90
2023-02-02T09:30:56.277Z,2.90
2023-02-02T09:33:24.200Z,2.90
2023-02-02T09:35:51.999Z,3.00
2023-02-02T09:38:19.825Z,3.00
2023-02-02T09:40:47.682Z,3.00
2023-02-02T09:43:31.958Z,2.90
2023-02-02T09:46:09.446Z,2.90
2023-02-02T09:48:46.926Z,2.90
2023-02-02T09:51:19.043Z,2.90
2023-02-02T09:53:55.500Z,2.80
2023-02-02T09:56:30.282Z,2.80
2023-02-02T09:59:18.805Z,2.80
2023-02-02T10:01:48.361Z,2.80
2023-02-02T10:04:20.276Z,2.90
2023-02-02T10:06:50.043Z,2.90
2023-02-02T10:09:32.241Z,2.90
2023-02-02T10:12:05.122Z,3.00
2023-02-02T10:14:37.877Z,3.00
2023-02-02T10:17:23.725Z,3.00
2023-02-02T10:19:56.161Z,3.10
2023-02-02T10:22:28.453Z,3.20
2023-02-02T10:24:58.412Z,3.10
2023-02-02T10:27:35.711Z,3.10
2023-02-02T10:30:12.881Z,3.10
2023-02-02T10:32:48.723Z,3.10
2023-02-02T10:35:35.045Z,3.00
2023-02-02T10:38:10.367Z,3.10
2023-02-02T10:40:47.400Z,3.10
2023-02-02T10:43:49.393Z,3.00
2023-02-02T10:46:24.565Z,3.00
2023-02-02T10:48:58.841Z,3.00
2023-02-02T10:51:29.512Z,3.00
2023-02-02T10:54:00.854Z,3.00
2023-02-02T10:56:36.125Z,3.10
2023-02-02T10:59:08.415Z,3.10
2023-02-02T11:01:37.652Z,3.10
2023-02-02T11:04:23.068Z,3.00
2023-02-02T11:06:50.931Z,3.00
2023-02-02T11:09:22.039Z,3.00
2023-02-02T11:11:55.651Z,3.00
2023-02-02T11:14:44.544Z,3.00
2023-02-02T11:17:20.256Z,3.00
2023-02-02T11:19:49.637Z,3.00
2023-02-02T11:22:29.787Z,3.00
2023-02-02T11:25:01.011Z,3.00
2023-02-02T11:27:32.360Z,3.00
2023-02-02T11:30:01.793Z,2.90
2023-02-02T11:32:33.606Z,2.90
2023-02-02T11:35:20.756Z,3.00
2023-02-02T11:37:57.549Z,2.90
2023-02-02T11:40:33.852Z,2.90
2023-02-02T11:43:04.860Z,2.90
2023-02-02T11:45:36.311Z,3.00
2023-02-02T11:48:15.457Z,3.00
2023-02-02T11:50:47.276Z,3.00
2023-02-02T11:53:24.774Z,3.10
2023-02-02T11:55:53.379Z,3.10
2023-02-02T11:58:27.616Z,3.10
2023-02-02T12:01:01.298Z,3.10
2023-02-02T12:03:35.960Z,3.20
2023-02-02T12:06:19.954Z,3.20
2023-02-02T12:08:48.154Z,3.20
2023-02-02T12:11:30.396Z,3.10
2023-02-02T12:14:12.448Z,3.10
2023-02-02T12:16:53.371Z,3.10
2023-02-02T12:19:46.346Z,3.10
2023-02-02T12:22:27.079Z,3.10
2023-02-02T12:25:01.500Z,3.10
2023-02-02T12:27:40.467Z,3.00
2023-02-02T12:30:23.526Z,2.90
2023-02-02T12:33:09.242Z,2.90
2023-02-02T12:35:56.055Z,2.80
2023-02-02T12:38:36.048Z,2.80
2023-02-02T12:41:18.408Z,2.70
2023-02-02T12:43:48.869Z,2.70
2023-02-02T12:46:31.181Z,2.70
2023-02-02T12:49:20.156Z,2.70
2023-02-02T12:52:04.289Z,2.80
2023-02-02T12:54:50.507Z,2.80
2023-02-02T12:57:34.697Z,2.80
2023-02-02T13:00:20.758Z,2.80
2023-02-02T13:03:04.350Z,2.80
2023-02-02T13:05:47.790Z,2.80
2023-02-02T13:08:21.255Z,2.80
2023-02-02T13:10:53.182Z,2.90
2023-02-02T13:13:26.256Z,2.90
2023-02-02T13:15:58.463Z,2.90
2023-02-02T13:18:31.427Z,2.90
2023-02-02T13:21:03.441Z,3.00
2023-02-02T13:23:37.266Z,3.10
2023-02-02T13:26:08.978Z,3.10
2023-02-02T13:28:42.908Z,3.20
2023-02-02T13:31:17.794Z,3.20
2023-02-02T13:33:50.718Z,3.30
2023-02-02T13:36:25.916Z,3.30
2023-02-02T13:38:58.434Z,3.40
2023-02-02T13:41:27.159Z,3.40
2023-02-02T13:44:02.575Z,3.50
2023-02-02T13:46:37.309Z,3.50
2023-02-02T13:49:10.783Z,3.60
2023-02-02T13:51:58.575Z,3.50
2023-02-02T13:55:05.863Z,3.60
2023-02-02T13:58:06.859Z,3.60
2023-02-02T14:00:38.208Z,3.60
2023-02-02T14:03:08.194Z,3.60
2023-02-02T14:05:39.118Z,3.70
2023-02-02T14:08:09.440Z,3.70
2023-02-02T14:10:40.872Z,3.70
2023-02-02T14:13:35.774Z,3.70
2023-02-02T14:16:06.538Z,3.70
2023-02-02T14:18:57.375Z,3.70
2023-02-02T14:22:02.574Z,3.70
2023-02-02T14:24:44.373Z,3.70
2023-02-02T14:30:36.092Z,3.60
2023-02-02T14:33:47.194Z,3.60
2023-02-02T14:36:16.783Z,3.60
2023-02-02T14:38:57.270Z,3.60
2023-02-02T14:41:54.181Z,3.50
2023-02-02T14:44:22.118Z,3.40
2023-02-02T14:46:51.344Z,3.30
2023-02-02T14:49:25.484Z,3.20
2023-02-02T14:52:01.177Z,3.20
2023-02-02T14:54:34.114Z,3.30
2023-02-02T14:57:04.935Z,3.20
2023-02-02T14:59:37.750Z,3.20
2023-02-02T15:02:18.284Z,3.20
2023-02-02T15:04:48.033Z,3.30
2023-02-02T15:07:54.415Z,3.30
2023-02-02T15:11:29.059Z,3.30
2023-02-02T15:14:16.012Z,3.20
2023-02-02T15:16:45.950Z,3.20
2023-02-02T15:19:23.982Z,3.20
2023-02-02T15:21:54.186Z,3.20
2023-02-02T15:24:26.971Z,3.20
2023-02-02T15:26:58.188Z,3.20
2023-02-02T15:29:36.251Z,3.20
2023-02-02T15:32:06.714Z,3.20
2023-02-02T15:34:41.932Z,3.20
2023-02-02T15:37:15.668Z,3.20
2023-02-02T15:39:47.203Z,3.10
2023-02-02T15:42:35.820Z,3.10
2023-02-02T15:45:03.767Z,3.00
2023-02-02T15:47:34.460Z,2.90
2023-02-02T15:50:17.635Z,2.90
2023-02-02T15:52:48.483Z,2.80
2023-02-02T15:55:22.767Z,2.70
2023-02-02T15:57:54.292Z,2.60
2023-02-02T16:00:29.058Z,2.60
2023-02-02T16:03:02.076Z,2.60
2023-02-02T16:05:48.289Z,2.60
2023-02-02T16:08:19.559Z,2.60
2023-02-02T16:10:49.267Z,2.60
2023-02-02T16:13:24.733Z,2.60
2023-02-02T16:15:57.408Z,2.50
2023-02-02T16:18:25.281Z,2.40
2023-02-02T16:20:55.846Z,2.30
2023-02-02T16:23:28.920Z,2.40
2023-02-02T16:26:01.167Z,2.30
2023-02-02T16:28:29.432Z,2.30
2023-02-02T16:31:00.763Z,2.30
2023-02-02T16:33:37.357Z,2.40
2023-02-02T16:36:24.279Z,2.40
2023-02-02T16:38:54.077Z,2.40
2023-02-02T16:41:32.100Z,2.40
2023-02-02T16:44:31.578Z,2.40
2023-02-02T16:47:01.350Z,2.40
2023-02-02T16:49:30.934Z,2.40
2023-02-02T16:52:13.521Z,2.40
2023-02-02T16:54:45.291Z,2.40
2023-02-02T16:57:19.465Z,2.40
2023-02-02T16:59:51.577Z,2.40
2023-02-02T17:02:28.419Z,2.40
2023-02-02T17:05:01.987Z,2.30
2023-02-02T17:07:33.937Z,2.30
2023-02-02T17:10:15.081Z,2.30
2023-02-02T17:12:42.905Z,2.30
2023-02-02T17:15:28.719Z,2.20
2023-02-02T17:17:56.793Z,2.20
2023-02-02T17:20:24.937Z,2.20
2023-02-02T17:22:58.920Z,2.20
2023-02-02T17:25:30.945Z,2.20
2023-02-02T17:28:00.680Z,2.30
2023-02-02T17:30:29.721Z,2.30
2023-02-02T17:32:57.691Z,2.30
2023-02-02T17:35:27.703Z,2.40
2023-02-02T17:37:57.907Z,2.50
2023-02-02T17:40:26.035Z,2.50
2023-02-02T17:42:54.562Z,2.50
2023-02-02T17:45:25.228Z,2.50
2023-02-02T17:47:53.171Z,2.50
2023-02-02T17:50:26.514Z,2.50
2023-02-02T17:52:54.896Z,2.40
2023-02-02T17:55:28.406Z,2.30
2023-02-02T17:57:56.173Z,2.30
2023-02-02T18:00:26.498Z,2.40
2023-02-02T18:03:00.894Z,2.40
2023-02-02T18:05:29.003Z,2.40
2023-02-02T18:07:56.969Z,2.30
2023-02-02T18:10:27.211Z,2.30
2023-02-02T18:12:55.174Z,2.30
2023-02-02T18:15:23.378Z,2.30
2023-02-02T18:17:51.446Z,2.30
2023-02-02T18:20:20.538Z,2.30
2023-02-02T18:22:48.594Z,2.40
2023-02-02T18:25:16.549Z,2.30
2023-02-02T18:27:46.588Z,2.30
2023-02-02T18:30:15.287Z,2.20
2023-02-02T18:32:43.222Z,2.20
2023-02-02T18:35:12.460Z,2.20
2023-02-02T18:37:40.476Z,2.30
2023-02-02T18:40:09.223Z,2.30
2023-02-02T18:42:37.573Z,2.30
2023-02-02T18:45:07.463Z,2.20
2023-02-02T18:47:35.277Z,2.20
2023-02-02T18:50:03.194Z,2.20
2023-02-02T18:52:32.970Z,2.20
2023-02-02T18:55:01.268Z,2.20
2023-02-02T18:57:30.463Z,2.20
2023-02-02T18:59:58.275Z,2.30
2023-02-02T19:02:27.483Z,2.30
2023-02-02T19:05:12.948Z,2.20
2023-02-02T19:07:55.824Z,2.30
2023-02-02T19:10:24.948Z,2.30
2023-02-02T19:12:56.331Z,2.30
2023-02-02T19:15:26.413Z,2.30
2023-02-02T19:17:56.293Z,2.40
2023-02-02T19:20:29.782Z,2.50
2023-02-02T19:23:03.755Z,2.50
2023-02-02T19:25:31.530Z,2.60
2023-02-02T19:28:01.560Z,2.50
2023-02-02T19:30:29.391Z,2.50
2023-02-02T19:32:58.551Z,2.60
2023-02-02T19:35:28.751Z,2.10
2023-02-02T19:38:01.658Z,2.60
2023-02-02T19:40:29.525Z,2.70
2023-02-02T19:43:03.150Z,2.70
2023-02-02T19:45:33.302Z,2.60
2023-02-02T19:48:13.654Z,2.50
2023-02-02T19:50:41.720Z,2.50
2023-02-02T19:53:16.939Z,2.40
2023-02-02T19:55:44.786Z,2.40
2023-02-02T19:58:18.261Z,2.40
2023-02-02T20:00:46.966Z,2.50
2023-02-02T20:03:20.136Z,2.40
2023-02-02T20:05:49.627Z,2.50
2023-02-02T20:08:24.271Z,2.40
2023-02-02T20:10:53.008Z,2.40
2023-02-02T20:13:22.589Z,2.30
2023-02-02T20:15:51.782Z,2.30
2023-02-02T20:18:25.058Z,2.30
2023-02-02T20:20:55.142Z,2.30
2023-02-02T20:23:32.749Z,2.20
2023-02-02T20:26:02.862Z,2.20
2023-02-02T20:28:41.275Z,2.10
2023-02-02T20:31:11.451Z,2.10
2023-02-02T20:33:42.731Z,2.10
2023-02-02T20:36:28.448Z,2.10
2023-02-02T20:38:56.398Z,2.00
2023-02-02T20:41:24.372Z,2.00
2023-02-02T20:43:52.197Z,2.00
2023-02-02T20:46:20.000Z,2.00
2023-02-02T20:48:49.156Z,2.00
2023-02-02T20:51:16.897Z,2.00
2023-02-02T20:53:44.877Z,2.00
2023-02-02T20:56:12.719Z,2.00
2023-02-02T20:58:40.537Z,2.00
2023-02-02T21:01:08.334Z,2.00
2023-02-02T21:03:36.273Z,2.00
2023-02-02T21:06:05.627Z,2.00
2023-02-02T21:08:33.891Z,2.00
2023-02-02T21:11:01.701Z,2.00
2023-02-02T21:13:29.479Z,2.00
2023-02-02T21:15:57.297Z,2.10
2023-02-02T21:18:25.144Z,2.10
2023-02-02T21:20:53.018Z,2.10
2023-02-02T21:23:22.567Z,2.10
2023-02-02T21:25:50.371Z,2.10
2023-02-02T21:28:18.169Z,2.10
2023-02-02T21:30:46.125Z,2.10
2023-02-02T21:33:13.940Z,2.10
2023-02-02T21:35:41.681Z,2.00
2023-02-02T21:38:14.747Z,2.00
2023-02-02T21:40:43.960Z,2.10
2023-02-02T21:43:16.500Z,2.10
2023-02-02T21:45:45.849Z,2.10
2023-02-02T21:48:26.800Z,2.10
2023-02-02T21:50:54.575Z,2.10
2023-02-02T21:53:24.322Z,2.10
2023-02-02T21:55:55.121Z,2.20
2023-02-02T21:58:26.278Z,2.10
2023-02-02T22:00:55.515Z,2.20
2023-02-02T22:03:34.050Z,2.20
2023-02-02T22:06:24.404Z,2.30
2023-02-02T22:08:54.302Z,2.40
2023-02-02T22:11:31.007Z,2.60
2023-02-02T22:14:03.387Z,2.80
2023-02-02T22:16:39.554Z,2.90
2023-02-02T22:19:24.283Z,3.10
2023-02-02T22:21:52.142Z,3.30
2023-02-02T22:24:19.949Z,3.40
2023-02-02T22:26:49.356Z,3.50
2023-02-02T22:29:21.072Z,3.70
2023-02-02T22:31:48.989Z,3.80
2023-02-02T22:34:16.827Z,3.90
2023-02-02T22:36:44.595Z,3.90
2023-02-02T22:39:12.474Z,4.00
2023-02-02T22:41:40.342Z,4.10
2023-02-02T22:44:09.562Z,4.10
2023-02-02T22:46:37.439Z,4.10
2023-02-02T22:49:05.292Z,4.20
2023-02-02T22:51:33.119Z,4.20
2023-02-02T22:54:00.894Z,4.30
2023-02-02T22:56:28.673Z,4.30
2023-02-02T22:58:56.447Z,4.50
2023-02-02T23:01:25.700Z,4.30
2023-02-02T23:03:53.609Z,4.30
2023-02-02T23:06:21.417Z,4.40
2023-02-02T23:08:49.209Z,4.40
2023-02-02T23:11:16.938Z,4.40
2023-02-02T23:13:44.770Z,4.40
2023-02-02T23:16:12.671Z,4.50
2023-02-02T23:18:41.842Z,4.40
2023-02-02T23:21:09.630Z,4.40
2023-02-02T23:23:37.411Z,4.40
2023-02-02T23:26:05.241Z,4.50
2023-02-02T23:28:33.043Z,4.50
2023-02-02T23:31:01.952Z,4.50
2023-02-02T23:33:29.873Z,4.50
2023-02-02T23:35:59.034Z,4.60
2023-02-02T23:38:26.829Z,4.50
2023-02-02T23:40:54.641Z,4.60
2023-02-02T23:43:22.455Z,4.50
2023-02-02T23:45:50.247Z,4.60
2023-02-02T23:48:18.432Z,4.60
2023-02-02T23:50:46.929Z,4.50
2023-02-02T23:53:16.317Z,4.60
2023-02-02T23:55:46.877Z,4.60
2023-02-02T23:58:15.078Z,4.60
